Time;durP1;ratioP1;P1;durP2;ratioP2;P2;SDS_P1;SDS_P2;PMS_P1;PMS_P2;Temp;Humidity;BMP_temperature;BMP_pressure;BME280_temperature;BME280_humidity;BME280_pressure;Samples;Min_cycle;Max_cycle;Signal;HPM_P1;HPM_P2
2021/10/05 00:00:37;;;;;;;6.00;5.50;;;21.40;99.90;;;;;;5146888;27;20496;-37
2021/10/05 00:03:11;;;;;;;7.10;6.27;;;21.20;99.90;;;;;;5146811;27;20416;-38
2021/10/05 00:05:42;;;;;;;6.37;5.53;;;21.10;99.90;;;;;;5146250;27;20542;-37
2021/10/05 00:08:13;;;;;;;7.13;5.33;;;21.20;99.90;;;;;;5144141;27;20440;-37
2021/10/05 00:10:43;;;;;;;6.00;5.40;;;21.20;99.90;;;;;;5147361;27;20440;-37
2021/10/05 00:13:17;;;;;;;5.77;5.30;;;21.20;99.90;;;;;;5137160;27;20487;-38
2021/10/05 00:15:48;;;;;;;5.70;5.20;;;20.90;99.90;;;;;;5147059;27;20473;-37
2021/10/05 00:18:21;;;;;;;5.80;5.20;;;20.90;99.90;;;;;;5145987;27;20509;-37
2021/10/05 00:20:51;;;;;;;4.90;4.50;;;20.70;99.90;;;;;;5146922;27;20510;-37
2021/10/05 00:23:22;;;;;;;5.10;4.60;;;20.60;99.90;;;;;;5140155;27;20425;-37
2021/10/05 00:25:54;;;;;;;5.80;5.20;;;20.80;99.90;;;;;;5133432;27;20452;-37
2021/10/05 00:28:24;;;;;;;6.40;5.50;;;20.70;99.90;;;;;;5130957;27;20491;-37
2021/10/05 00:30:55;;;;;;;5.13;4.73;;;20.70;99.90;;;;;;5146548;27;20419;-38
2021/10/05 00:33:28;;;;;;;6.10;5.50;;;20.70;99.90;;;;;;5145601;27;20473;-37
2021/10/05 00:35:59;;;;;;;7.60;5.63;;;20.60;99.90;;;;;;5146521;27;20441;-37
2021/10/05 00:38:30;;;;;;;5.23;4.73;;;20.30;99.90;;;;;;5144677;27;20445;-38
2021/10/05 00:41:01;;;;;;;5.77;4.33;;;20.30;99.90;;;;;;5145897;27;20512;-37
2021/10/05 00:43:34;;;;;;;6.77;6.17;;;20.30;99.90;;;;;;5145731;27;20562;-37
2021/10/05 00:46:09;;;;;;;9.67;7.10;;;20.10;99.90;;;;;;5145079;27;20448;-37
2021/10/05 00:48:42;;;;;;;9.60;6.57;;;20.10;99.90;;;;;;5145797;27;20498;-37
2021/10/05 00:51:14;;;;;;;6.27;5.30;;;19.90;99.90;;;;;;5146058;27;20419;-37
2021/10/05 00:53:45;;;;;;;6.30;4.80;;;19.90;99.90;;;;;;5146127;27;20445;-37
2021/10/05 00:56:16;;;;;;;5.70;5.10;;;20.00;99.90;;;;;;5125487;28;20456;-37
2021/10/05 00:58:50;;;;;;;7.27;6.00;;;20.00;99.90;;;;;;5125061;28;20420;-38
2021/10/05 01:01:21;;;;;;;8.63;6.17;;;20.00;99.90;;;;;;5141959;27;20463;-37
2021/10/05 01:03:54;;;;;;;6.40;5.90;;;19.90;99.90;;;;;;5145495;27;20904;-38
2021/10/05 01:06:28;;;;;;;7.07;6.00;;;19.80;99.90;;;;;;5145917;27;20476;-37
2021/10/05 01:08:59;;;;;;;7.33;6.30;;;19.80;99.90;;;;;;5146312;27;20414;-37
2021/10/05 01:11:30;;;;;;;8.17;6.60;;;19.80;99.90;;;;;;5145736;27;20482;-38
2021/10/05 01:14:01;;;;;;;6.73;6.13;;;19.70;99.90;;;;;;5145362;27;20449;-37
2021/10/05 01:16:32;;;;;;;7.00;6.30;;;19.60;99.90;;;;;;5144479;27;20440;-37
2021/10/05 01:19:05;;;;;;;7.47;6.77;;;19.60;99.90;;;;;;5144180;27;20469;-37
2021/10/05 01:21:37;;;;;;;8.20;7.50;;;19.50;99.90;;;;;;5145492;27;20471;-37
2021/10/05 01:24:10;;;;;;;7.63;6.87;;;19.40;99.90;;;;;;5146765;27;20437;-37
2021/10/05 01:26:42;;;;;;;9.10;7.57;;;19.30;99.90;;;;;;5145284;27;20910;-37
2021/10/05 01:29:16;;;;;;;8.00;7.20;;;19.30;99.90;;;;;;5144419;27;20460;-36
2021/10/05 01:31:48;;;;;;;7.27;6.67;;;19.20;99.90;;;;;;5144292;27;20521;-36
2021/10/05 01:34:22;;;;;;;9.93;7.83;;;19.00;99.90;;;;;;5144808;27;20574;-37
2021/10/05 01:36:58;;;;;;;8.20;7.50;;;19.00;99.90;;;;;;5145858;27;20404;-36
2021/10/05 01:39:31;;;;;;;8.87;7.97;;;19.00;99.90;;;;;;5145519;27;20444;-37
2021/10/05 01:42:05;;;;;;;12.10;8.40;;;19.00;99.90;;;;;;5145183;27;20455;-36
2021/10/05 01:44:36;;;;;;;8.87;7.97;;;18.90;99.90;;;;;;5145233;27;20485;-37
2021/10/05 01:47:11;;;;;;;8.80;7.70;;;18.70;99.90;;;;;;5144000;27;20424;-37
2021/10/05 01:49:42;;;;;;;9.60;8.70;;;18.70;99.90;;;;;;5145030;27;20447;-37
2021/10/05 01:52:14;;;;;;;9.47;8.53;;;18.60;99.90;;;;;;5145233;27;20429;-37
2021/10/05 01:54:48;;;;;;;9.67;8.77;;;18.50;99.90;;;;;;5145549;27;20736;-37
2021/10/05 01:57:19;;;;;;;9.73;8.40;;;18.50;99.90;;;;;;5144211;27;20464;-45
2021/10/05 01:59:51;;;;;;;9.10;8.20;;;18.40;99.90;;;;;;5144327;27;20455;-36
2021/10/05 02:02:22;;;;;;;10.10;9.17;;;18.40;99.90;;;;;;5143858;27;20484;-36
2021/10/05 02:04:56;;;;;;;9.67;8.83;;;18.20;99.90;;;;;;5144374;27;20460;-38
2021/10/05 02:07:29;;;;;;;10.70;9.80;;;18.20;99.90;;;;;;5144428;27;20500;-37
2021/10/05 02:10:00;;;;;;;12.30;11.20;;;18.10;99.90;;;;;;5145166;27;20426;-38
2021/10/05 02:12:31;;;;;;;10.93;9.83;;;18.00;99.90;;;;;;5142472;27;20431;-37
2021/10/05 02:15:02;;;;;;;13.33;12.03;;;18.00;99.90;;;;;;5144382;27;20434;-38
2021/10/05 02:17:33;;;;;;;15.57;14.07;;;18.00;99.90;;;;;;5143651;27;20962;-37
2021/10/05 02:20:04;;;;;;;13.63;12.30;;;17.90;99.90;;;;;;5146008;27;20449;-38
2021/10/05 02:22:37;;;;;;;15.70;14.20;;;17.90;99.90;;;;;;5141705;27;20476;-37
2021/10/05 02:25:09;;;;;;;17.53;15.83;;;18.00;99.90;;;;;;5145120;27;20559;-38
2021/10/05 02:27:40;;;;;;;15.23;13.93;;;18.00;99.90;;;;;;5144328;27;20457;-38
2021/10/05 02:30:12;;;;;;;16.37;14.67;;;18.00;99.90;;;;;;5144318;27;20941;-38
2021/10/05 02:32:43;;;;;;;16.67;14.80;;;18.00;99.90;;;;;;5143358;27;20472;-38
2021/10/05 02:35:14;;;;;;;16.50;14.73;;;17.80;99.90;;;;;;5143654;27;20456;-38
2021/10/05 02:37:47;;;;;;;16.00;14.40;;;17.80;99.90;;;;;;5144442;27;20464;-38
2021/10/05 02:40:18;;;;;;;16.70;15.00;;;17.80;99.90;;;;;;5144177;27;20468;-38
2021/10/05 02:42:49;;;;;;;18.13;16.33;;;17.80;99.90;;;;;;5142722;27;20517;-37
2021/10/05 02:45:23;;;;;;;18.07;16.40;;;17.80;99.90;;;;;;5143744;27;20479;-38
2021/10/05 02:47:54;;;;;;;18.70;16.80;;;17.80;99.90;;;;;;5143831;27;20437;-38
2021/10/05 02:50:25;;;;;;;20.73;17.37;;;17.80;99.90;;;;;;5143491;27;20524;-38
2021/10/05 02:52:58;;;;;;;19.30;17.03;;;17.70;99.90;;;;;;5143756;27;20399;-39
2021/10/05 02:55:29;;;;;;;20.03;18.13;;;17.60;99.90;;;;;;5143867;27;20408;-38
2021/10/05 02:58:00;;;;;;;20.70;18.60;;;17.50;99.90;;;;;;5143497;27;20411;-38
2021/10/05 03:00:31;;;;;;;21.43;19.43;;;17.40;99.90;;;;;;5142459;27;20763;-38
2021/10/05 03:03:04;;;;;;;25.23;20.50;;;17.30;99.90;;;;;;5141736;27;20480;-39
2021/10/05 03:05:35;;;;;;;24.43;21.63;;;17.30;99.90;;;;;;5144070;27;20476;-38
2021/10/05 03:08:09;;;;;;;22.67;20.57;;;17.10;99.90;;;;;;5144493;27;20423;-39
2021/10/05 03:10:40;;;;;;;23.43;21.03;;;17.10;99.90;;;;;;5144258;27;20411;-38
2021/10/05 03:13:14;;;;;;;27.10;24.37;;;17.00;99.90;;;;;;5130825;28;20456;-38
2021/10/05 03:15:45;;;;;;;28.93;25.80;;;17.00;99.90;;;;;;5137382;28;20441;-38
2021/10/05 03:18:16;;;;;;;26.40;23.80;;;16.90;99.90;;;;;;5142727;28;20452;-38
2021/10/05 03:20:50;;;;;;;29.97;26.97;;;17.00;99.90;;;;;;5143488;27;20453;-38
2021/10/05 03:23:22;;;;;;;28.77;26.00;;;16.90;99.90;;;;;;5142578;28;20538;-38
2021/10/05 03:25:54;;;;;;;31.33;28.20;;;16.90;99.90;;;;;;5123601;28;20426;-36
2021/10/05 03:28:27;;;;;;;31.23;28.10;;;16.90;99.90;;;;;;5131050;28;20459;-38
2021/10/05 03:30:58;;;;;;;29.60;26.70;;;17.00;99.90;;;;;;5143035;27;20476;-37
2021/10/05 03:33:29;;;;;;;32.40;29.17;;;16.90;99.90;;;;;;5143189;27;20464;-37
2021/10/05 03:36:03;;;;;;;32.03;28.63;;;16.90;99.90;;;;;;5143640;28;20469;-38
2021/10/05 03:38:36;;;;;;;31.20;28.13;;;16.70;99.90;;;;;;5143105;28;20583;-38
2021/10/05 03:41:07;;;;;;;32.23;28.97;;;16.80;99.90;;;;;;5145542;27;20452;-38
2021/10/05 03:43:40;;;;;;;30.40;27.37;;;16.70;99.90;;;;;;5147359;27;20453;-37
2021/10/05 03:46:11;;;;;;;31.30;27.90;;;16.60;99.90;;;;;;5147119;27;20445;-37
2021/10/05 03:48:42;;;;;;;29.67;26.87;;;16.60;99.90;;;;;;5146718;27;20470;-38
2021/10/05 03:51:13;;;;;;;30.00;26.93;;;16.50;99.90;;;;;;5146364;27;20444;-37
2021/10/05 03:53:45;;;;;;;33.10;28.80;;;16.50;99.90;;;;;;5147497;27;20440;-38
2021/10/05 03:56:16;;;;;;;30.80;27.50;;;16.40;99.90;;;;;;5147545;27;21218;-38
2021/10/05 03:58:47;;;;;;;31.63;28.67;;;16.40;99.90;;;;;;5147251;27;20440;-38
2021/10/05 04:01:18;;;;;;;31.03;27.90;;;16.40;99.90;;;;;;5146012;27;20468;-38
2021/10/05 04:03:49;;;;;;;30.67;27.60;;;16.30;99.90;;;;;;5146107;27;20450;-37
2021/10/05 04:06:21;;;;;;;30.30;27.40;;;16.30;99.90;;;;;;5147198;27;20445;-37
2021/10/05 04:08:53;;;;;;;28.87;25.83;;;16.30;99.90;;;;;;5132100;27;20437;-37
2021/10/05 04:11:24;;;;;;;29.93;27.03;;;16.20;99.90;;;;;;5143755;27;20448;-38
2021/10/05 04:13:55;;;;;;;30.03;27.03;;;16.20;99.90;;;;;;5146985;27;20449;-37
2021/10/05 04:16:26;;;;;;;30.10;25.83;;;16.10;99.90;;;;;;5146100;27;20448;-38
2021/10/05 04:18:57;;;;;;;29.53;26.40;;;16.00;99.90;;;;;;5146393;27;20449;-38
2021/10/05 04:21:29;;;;;;;28.37;25.57;;;15.90;99.90;;;;;;5146053;27;20493;-38
2021/10/05 04:24:02;;;;;;;29.47;26.57;;;15.90;99.90;;;;;;5147321;27;20450;-38
2021/10/05 04:26:33;;;;;;;29.90;26.90;;;15.80;99.90;;;;;;5146847;27;20903;-38
2021/10/05 04:29:04;;;;;;;28.70;25.70;;;15.70;99.90;;;;;;5146578;27;20517;-38
2021/10/05 04:31:39;;;;;;;29.10;26.20;;;15.70;99.90;;;;;;5145604;27;20448;-38
2021/10/05 04:34:10;;;;;;;27.87;22.67;;;15.60;99.90;;;;;;5146482;27;20440;-37
2021/10/05 04:36:41;;;;;;;27.97;24.87;;;15.50;99.90;;;;;;5146722;27;20468;-38
2021/10/05 04:39:16;;;;;;;27.27;24.47;;;15.40;99.90;;;;;;5147063;27;20453;-38
2021/10/05 04:41:47;;;;;;;28.53;25.70;;;15.30;99.90;;;;;;5144764;27;20444;-38
2021/10/05 04:44:18;;;;;;;28.50;25.70;;;15.30;99.90;;;;;;5145637;27;20946;-37
2021/10/05 04:46:49;;;;;;;27.67;25.07;;;15.20;99.90;;;;;;5144761;27;20477;-38
2021/10/05 04:49:20;;;;;;;27.93;25.07;;;15.20;99.90;;;;;;5141129;27;20460;-38
2021/10/05 04:51:51;;;;;;;27.93;25.00;;;15.20;99.90;;;;;;5145117;27;20480;-38
2021/10/05 04:54:24;;;;;;;29.93;26.90;;;15.20;99.90;;;;;;5145935;27;20452;-38
2021/10/05 04:56:58;;;;;;;27.03;24.23;;;15.30;99.90;;;;;;5146247;27;20444;-38
2021/10/05 04:59:32;;;;;;;27.20;24.50;;;15.30;99.90;;;;;;5125831;28;20476;-38
2021/10/05 05:02:03;;;;;;;27.30;23.70;;;15.20;99.90;;;;;;5139634;27;20449;-38
2021/10/05 05:04:34;;;;;;;25.90;23.27;;;15.10;99.90;;;;;;5145808;27;20479;-38
2021/10/05 05:07:06;;;;;;;25.30;22.80;;;15.10;99.90;;;;;;5145322;27;20436;-38
2021/10/05 05:09:38;;;;;;;27.03;24.07;;;15.00;99.90;;;;;;5145518;27;20433;-38
2021/10/05 05:12:11;;;;;;;28.17;24.13;;;15.10;99.90;;;;;;5144282;27;20449;-38
2021/10/05 05:14:42;;;;;;;27.00;24.50;;;15.10;99.90;;;;;;5145532;27;20444;-38
2021/10/05 05:17:13;;;;;;;26.40;23.63;;;15.10;99.90;;;;;;5145061;27;20475;-38
2021/10/05 05:19:43;;;;;;;24.90;22.43;;;15.10;99.90;;;;;;5145690;27;20482;-38
2021/10/05 05:22:18;;;;;;;24.90;22.30;;;15.10;99.90;;;;;;5144978;27;20437;-38
2021/10/05 05:24:50;;;;;;;24.50;22.00;;;15.20;99.90;;;;;;5145463;27;20433;-37
2021/10/05 05:27:22;;;;;;;24.77;22.43;;;15.10;99.90;;;;;;5145409;27;20460;-38
2021/10/05 05:29:53;;;;;;;25.60;22.93;;;15.10;99.90;;;;;;5146102;27;20448;-38
2021/10/05 05:32:24;;;;;;;24.03;21.67;;;15.10;99.90;;;;;;5144241;27;20468;-38
2021/10/05 05:34:55;;;;;;;24.60;22.00;;;15.10;99.90;;;;;;5145325;27;20445;-39
2021/10/05 05:37:26;;;;;;;23.17;20.67;;;15.00;99.90;;;;;;5145747;27;20469;-38
2021/10/05 05:39:58;;;;;;;24.83;22.27;;;15.00;99.90;;;;;;5146197;27;20444;-38
2021/10/05 05:42:29;;;;;;;24.37;21.87;;;15.10;99.90;;;;;;5143966;27;20525;-38
2021/10/05 05:45:00;;;;;;;24.90;22.13;;;15.10;99.90;;;;;;5144920;27;20448;-38
2021/10/05 05:47:31;;;;;;;22.43;20.07;;;15.10;99.90;;;;;;5144341;27;20666;-38
2021/10/05 05:50:04;;;;;;;25.70;23.10;;;15.10;99.90;;;;;;5145258;27;20431;-38
2021/10/05 05:52:35;;;;;;;24.83;22.33;;;15.10;99.90;;;;;;5144465;27;20447;-37
2021/10/05 05:55:15;;;;;;;23.53;21.10;;;15.10;99.90;;;;;;5145472;27;20433;-38
2021/10/05 05:57:49;;;;;;;24.33;22.00;;;15.10;99.90;;;;;;5144865;27;20449;-37
2021/10/05 06:00:21;;;;;;;29.10;23.23;;;15.10;99.90;;;;;;5144787;27;20465;-37
2021/10/05 06:02:52;;;;;;;25.67;23.20;;;15.10;99.90;;;;;;5144275;27;20473;-38
2021/10/05 06:05:27;;;;;;;24.90;22.40;;;15.10;99.90;;;;;;5144865;27;20472;-38
2021/10/05 06:07:58;;;;;;;25.13;22.43;;;15.10;99.90;;;;;;5144636;27;20501;-37
2021/10/05 06:10:31;;;;;;;23.53;20.60;;;15.10;99.90;;;;;;5144649;27;20780;-38
2021/10/05 06:13:02;;;;;;;24.07;21.57;;;15.10;99.90;;;;;;5143666;27;20464;-37
2021/10/05 06:15:34;;;;;;;25.40;22.90;;;15.20;99.90;;;;;;5144345;27;20472;-37
2021/10/05 06:18:06;;;;;;;27.00;23.93;;;15.20;99.90;;;;;;5144327;27;20476;-38
2021/10/05 06:20:37;;;;;;;23.50;21.30;;;15.20;99.90;;;;;;5144601;27;20840;-37
2021/10/05 06:23:08;;;;;;;24.33;22.00;;;15.10;99.90;;;;;;5144084;27;20503;-38
2021/10/05 06:25:42;;;;;;;23.77;21.27;;;15.10;99.90;;;;;;5145267;27;20425;-37
2021/10/05 06:28:12;;;;;;;22.70;20.30;;;15.00;99.90;;;;;;5144583;27;20526;-37
2021/10/05 06:30:43;;;;;;;22.70;20.50;;;14.90;99.90;;;;;;5144271;27;20448;-37
2021/10/05 06:33:17;;;;;;;23.03;20.83;;;14.90;99.90;;;;;;5143697;27;20411;-37
2021/10/05 06:35:48;;;;;;;25.23;22.70;;;14.80;99.90;;;;;;5144611;27;20472;-37
2021/10/05 06:38:19;;;;;;;24.07;21.87;;;14.70;99.90;;;;;;5145011;27;20421;-37
2021/10/05 06:40:52;;;;;;;22.40;19.97;;;14.70;99.90;;;;;;5144589;27;20508;-37
2021/10/05 06:43:23;;;;;;;25.10;22.43;;;14.60;99.90;;;;;;5143601;27;20793;-37
2021/10/05 06:45:54;;;;;;;25.10;22.67;;;14.60;99.90;;;;;;5144110;27;20476;-37
2021/10/05 06:48:25;;;;;;;25.03;22.43;;;14.50;99.90;;;;;;5144320;27;20447;-37
2021/10/05 06:50:56;;;;;;;26.23;23.50;;;14.40;99.90;;;;;;5144290;27;20464;-37
2021/10/05 06:53:27;;;;;;;25.57;22.97;;;14.40;99.90;;;;;;5143698;27;20456;-38
2021/10/05 06:56:00;;;;;;;28.00;25.30;;;14.30;99.90;;;;;;5144837;28;21277;-38
2021/10/05 06:58:31;;;;;;;27.97;24.03;;;14.20;99.90;;;;;;5144404;28;20480;-38
2021/10/05 07:01:02;;;;;;;26.00;23.30;;;14.20;99.90;;;;;;5144074;27;21071;-37
2021/10/05 07:03:34;;;;;;;27.57;24.90;;;14.20;99.90;;;;;;5143339;27;20496;-36
2021/10/05 07:06:04;;;;;;;30.90;27.93;;;14.10;99.90;;;;;;5143911;27;20494;-36
2021/10/05 07:08:36;;;;;;;27.37;24.63;;;14.20;99.90;;;;;;5143952;28;20494;-37
2021/10/05 07:11:09;;;;;;;29.00;26.00;;;14.10;99.90;;;;;;5144339;27;20443;-36
2021/10/05 07:13:40;;;;;;;30.13;27.13;;;14.10;99.90;;;;;;5142936;27;20467;-36
2021/10/05 07:16:11;;;;;;;29.67;26.57;;;14.00;99.90;;;;;;5145605;27;20440;-37
2021/10/05 07:18:42;;;;;;;28.43;25.43;;;14.00;99.90;;;;;;5148069;27;20476;-37
2021/10/05 07:21:13;;;;;;;30.03;26.90;;;13.90;99.90;;;;;;5147908;27;20506;-36
2021/10/05 07:23:44;;;;;;;28.90;26.00;;;13.80;99.90;;;;;;5147577;27;20504;-36
2021/10/05 07:26:20;;;;;;;27.97;24.07;;;13.80;99.90;;;;;;5148846;27;20428;-36
2021/10/05 07:28:51;;;;;;;28.80;25.30;;;13.70;99.90;;;;;;5148855;27;20456;-37
2021/10/05 07:31:22;;;;;;;29.33;25.90;;;13.70;99.90;;;;;;5147413;27;20468;-37
2021/10/05 07:33:53;;;;;;;28.67;25.10;;;13.60;99.90;;;;;;5148038;27;20676;-37
2021/10/05 07:36:23;;;;;;;27.57;24.87;;;13.60;99.90;;;;;;5147821;27;20724;-37
2021/10/05 07:38:54;;;;;;;27.77;25.00;;;13.50;99.90;;;;;;5148026;27;20468;-37
2021/10/05 07:41:28;;;;;;;28.13;25.13;;;13.50;99.90;;;;;;5148090;27;20473;-37
2021/10/05 07:43:58;;;;;;;29.00;26.00;;;13.50;99.90;;;;;;5146985;27;20512;-37
2021/10/05 07:46:29;;;;;;;30.67;26.07;;;13.40;99.90;;;;;;5147031;27;20476;-37
2021/10/05 07:49:03;;;;;;;29.80;25.53;;;13.50;99.90;;;;;;5148078;27;20441;-37
2021/10/05 07:51:34;;;;;;;28.53;25.30;;;13.50;99.90;;;;;;5147541;27;20464;-36
2021/10/05 07:54:06;;;;;;;28.33;25.67;;;13.50;99.90;;;;;;5147751;27;20851;-36
2021/10/05 07:56:41;;;;;;;31.30;26.83;;;13.40;99.90;;;;;;5147824;27;20460;-36
2021/10/05 07:59:12;;;;;;;30.73;27.53;;;13.50;99.90;;;;;;5147376;27;20452;-37
2021/10/05 08:01:49;;;;;;;29.83;26.63;;;13.50;99.90;;;;;;5146825;27;20487;-37
2021/10/05 08:04:20;;;;;;;30.87;27.83;;;13.40;99.90;;;;;;5147214;27;20488;-37
2021/10/05 08:06:51;;;;;;;28.13;25.33;;;13.40;99.90;;;;;;5146869;27;20455;-37
2021/10/05 08:09:22;;;;;;;28.93;25.93;;;13.40;99.90;;;;;;5147758;27;20950;-37
2021/10/05 08:11:55;;;;;;;30.63;27.43;;;13.30;99.90;;;;;;5145105;27;20443;-36
2021/10/05 08:14:26;;;;;;;29.47;25.83;;;13.30;99.90;;;;;;5128533;27;20506;-37
2021/10/05 08:16:57;;;;;;;30.67;27.30;;;13.20;99.90;;;;;;5146259;27;20448;-37
2021/10/05 08:19:28;;;;;;;31.60;26.83;;;13.20;99.90;;;;;;5146634;27;20449;-37
2021/10/05 08:21:58;;;;;;;31.13;27.63;;;13.20;99.90;;;;;;5146391;27;20453;-37
2021/10/05 08:24:29;;;;;;;30.93;27.70;;;13.20;99.90;;;;;;5147073;27;20491;-36
2021/10/05 08:27:04;;;;;;;31.47;28.17;;;13.20;99.90;;;;;;5146868;27;20441;-37
2021/10/05 08:29:37;;;;;;;32.10;28.60;;;13.20;99.90;;;;;;5147202;27;20448;-36
2021/10/05 08:32:09;;;;;;;32.83;29.07;;;13.20;99.90;;;;;;5146097;27;20478;-36
2021/10/05 08:34:40;;;;;;;32.37;28.37;;;13.10;99.90;;;;;;5146334;27;20458;-36
2021/10/05 08:37:14;;;;;;;31.93;27.20;;;13.10;99.90;;;;;;5146570;27;20466;-36
2021/10/05 08:39:45;;;;;;;29.87;26.63;;;13.10;99.90;;;;;;5146572;27;20473;-36
2021/10/05 08:42:22;;;;;;;28.63;25.40;;;13.10;99.90;;;;;;5146687;27;20457;-37
2021/10/05 08:44:54;;;;;;;32.60;27.27;;;13.00;99.90;;;;;;5145888;27;20484;-36
2021/10/05 08:47:25;;;;;;;30.40;27.17;;;13.00;99.90;;;;;;5145562;27;20520;-37
2021/10/05 08:49:56;;;;;;;29.10;26.10;;;13.10;99.90;;;;;;5146567;27;20473;-36
2021/10/05 08:52:26;;;;;;;29.70;26.60;;;13.10;99.90;;;;;;5145982;27;20526;-36
2021/10/05 08:54:57;;;;;;;33.50;28.50;;;13.00;99.90;;;;;;5146338;27;20452;-36
2021/10/05 08:57:33;;;;;;;28.63;25.63;;;13.10;99.90;;;;;;5146591;27;20442;-37
2021/10/05 09:00:08;;;;;;;29.10;26.10;;;13.10;99.90;;;;;;5146083;27;20475;-37
2021/10/05 09:02:54;;;;;;;28.20;25.30;;;13.00;99.90;;;;;;5145484;27;20449;-36
2021/10/05 09:05:28;;;;;;;28.83;25.73;;;13.00;99.90;;;;;;5145853;27;20568;-36
2021/10/05 09:07:59;;;;;;;33.47;26.90;;;13.00;99.90;;;;;;5145535;27;20553;-36
2021/10/05 09:10:35;;;;;;;30.57;27.57;;;13.00;99.90;;;;;;5146030;27;20549;-36
2021/10/05 09:13:07;;;;;;;30.37;26.50;;;13.10;99.90;;;;;;5141514;27;20456;-36
2021/10/05 09:15:40;;;;;;;28.60;25.70;;;13.10;99.90;;;;;;5145462;27;20447;-36
2021/10/05 09:18:12;;;;;;;27.30;24.37;;;13.10;99.90;;;;;;5144859;27;20643;-36
2021/10/05 09:20:43;;;;;;;30.73;26.70;;;13.10;99.90;;;;;;5145802;27;20445;-37
2021/10/05 09:23:14;;;;;;;29.03;26.20;;;13.00;99.90;;;;;;5145731;27;20493;-36
2021/10/05 09:25:46;;;;;;;29.07;25.90;;;13.00;99.90;;;;;;5145413;27;20480;-36
2021/10/05 09:28:22;;;;;;;29.70;26.60;;;13.00;99.90;;;;;;5145987;27;20441;-36
2021/10/05 09:31:04;;;;;;;29.00;25.90;;;13.00;99.90;;;;;;5146064;27;20440;-36
2021/10/05 09:33:36;;;;;;;27.23;24.53;;;12.90;99.90;;;;;;5144394;27;20474;-37
2021/10/05 09:36:07;;;;;;;31.30;26.47;;;13.00;99.90;;;;;;5145004;27;20507;-37
2021/10/05 09:38:38;;;;;;;30.70;26.70;;;13.10;99.90;;;;;;5144591;27;20455;-37
2021/10/05 09:41:11;;;;;;;30.80;26.47;;;13.00;99.90;;;;;;5144232;27;20442;-36
2021/10/05 09:43:44;;;;;;;31.90;26.53;;;13.10;99.90;;;;;;5144966;27;20441;-36
2021/10/05 09:46:18;;;;;;;28.97;25.87;;;13.10;99.90;;;;;;5144407;27;20491;-36
2021/10/05 09:48:48;;;;;;;31.53;25.63;;;13.20;99.90;;;;;;5145223;27;20452;-37
2021/10/05 09:51:22;;;;;;;29.00;26.00;;;13.10;99.90;;;;;;5144970;27;20480;-37
2021/10/05 09:53:55;;;;;;;26.80;24.10;;;13.10;99.90;;;;;;5145034;27;20522;-36
2021/10/05 09:56:27;;;;;;;29.57;24.10;;;13.10;99.90;;;;;;5144280;27;20453;-37
2021/10/05 09:59:01;;;;;;;27.67;24.77;;;13.00;99.90;;;;;;5144425;27;20452;-37
2021/10/05 10:01:32;;;;;;;32.40;26.30;;;13.00;99.90;;;;;;5144747;27;20520;-37
2021/10/05 10:04:04;;;;;;;37.00;28.53;;;13.10;99.90;;;;;;5144268;27;20753;-37
2021/10/05 10:06:37;;;;;;;28.73;25.67;;;13.10;99.90;;;;;;5144390;27;20488;-37
2021/10/05 10:09:11;;;;;;;30.80;26.47;;;13.10;99.90;;;;;;5144446;27;20962;-38
2021/10/05 10:11:42;;;;;;;29.33;25.80;;;13.20;99.90;;;;;;5144319;27;20480;-37
2021/10/05 10:14:21;;;;;;;27.80;24.73;;;13.20;99.90;;;;;;5135022;27;20441;-37
2021/10/05 10:16:54;;;;;;;29.37;26.20;;;13.20;99.90;;;;;;5123861;28;20462;-37
2021/10/05 10:19:30;;;;;;;28.87;25.37;;;13.10;99.90;;;;;;5125117;27;20469;-37
2021/10/05 10:22:09;;;;;;;27.20;24.30;;;13.10;99.90;;;;;;5144617;27;20448;-36
2021/10/05 10:24:51;;;;;;;29.10;26.00;;;13.00;99.90;;;;;;5144636;27;20448;-38
2021/10/05 10:27:22;;;;;;;25.97;23.27;;;12.90;99.90;;;;;;5144261;27;20477;-36
2021/10/05 10:30:13;;;;;;;29.30;25.77;;;12.80;99.90;;;;;;5144536;27;20444;-36
2021/10/05 10:32:47;;;;;;;27.57;24.57;;;12.80;99.90;;;;;;5143413;27;20449;-37
2021/10/05 10:35:18;;;;;;;25.73;23.00;;;12.80;99.90;;;;;;5144446;27;20501;-37
2021/10/05 10:37:51;;;;;;;29.67;25.33;;;12.70;99.90;;;;;;5144233;27;20445;-36
2021/10/05 10:40:34;;;;;;;32.63;25.57;;;12.70;99.90;;;;;;5144277;27;20466;-37
2021/10/05 10:43:16;;;;;;;28.93;25.87;;;12.70;99.90;;;;;;5143456;27;20453;-37
2021/10/05 10:45:51;;;;;;;27.07;24.17;;;12.60;99.90;;;;;;5143537;27;20478;-36
2021/10/05 10:48:29;;;;;;;28.17;25.17;;;12.50;99.90;;;;;;5143453;27;20501;-37
2021/10/05 10:51:03;;;;;;;27.60;23.53;;;12.50;99.90;;;;;;5144370;27;20436;-36
2021/10/05 10:53:37;;;;;;;29.97;24.90;;;12.40;99.90;;;;;;5144316;27;20448;-36
2021/10/05 10:56:09;;;;;;;30.80;26.40;;;12.40;99.90;;;;;;5144351;27;20431;-36
2021/10/05 10:58:45;;;;;;;28.80;25.77;;;12.30;99.90;;;;;;5143717;28;20468;-36
2021/10/05 11:01:20;;;;;;;27.10;24.20;;;12.30;99.90;;;;;;5142971;27;20511;-36
2021/10/05 11:03:51;;;;;;;28.17;25.17;;;12.20;99.90;;;;;;5143937;27;20523;-36
2021/10/05 11:06:28;;;;;;;29.20;24.70;;;12.20;99.90;;;;;;5143793;27;20494;-37
2021/10/05 11:09:00;;;;;;;26.77;23.93;;;12.10;99.90;;;;;;5143554;28;20831;-36
2021/10/05 11:11:33;;;;;;;27.00;24.20;;;12.10;99.90;;;;;;5143310;28;20460;-36
2021/10/05 11:14:05;;;;;;;26.80;23.37;;;12.00;99.90;;;;;;5143450;28;20938;-37
2021/10/05 11:16:39;;;;;;;28.00;25.03;;;12.00;99.90;;;;;;5143514;27;20453;-36
2021/10/05 11:19:13;;;;;;;25.63;23.03;;;12.00;99.90;;;;;;5143899;27;20471;-37
2021/10/05 11:21:46;;;;;;;29.33;24.33;;;11.90;99.90;;;;;;5143229;28;20448;-36
2021/10/05 11:24:18;;;;;;;25.50;22.90;;;11.80;99.90;;;;;;5123337;28;20497;-36
2021/10/05 11:26:53;;;;;;;25.40;22.70;;;11.70;99.90;;;;;;5133924;28;20564;-37
2021/10/05 11:29:25;;;;;;;26.33;23.50;;;11.70;99.90;;;;;;5143799;27;20471;-38
2021/10/05 11:32:00;;;;;;;25.57;22.90;;;11.60;99.90;;;;;;5142494;27;20951;-37
2021/10/05 11:34:32;;;;;;;23.70;21.00;;;11.60;99.90;;;;;;5143490;27;20465;-37
2021/10/05 11:37:03;;;;;;;27.10;24.17;;;11.50;99.90;;;;;;5143507;27;20464;-37
2021/10/05 11:39:36;;;;;;;31.40;25.43;;;11.50;99.90;;;;;;5143407;27;20453;-36
2021/10/05 11:42:11;;;;;;;24.17;21.60;;;11.50;99.90;;;;;;5143524;27;20490;-36
2021/10/05 11:44:44;;;;;;;24.40;21.80;;;11.60;99.90;;;;;;5143495;28;20472;-37
2021/10/05 11:47:17;;;;;;;25.73;21.90;;;11.60;99.90;;;;;;5132621;28;20480;-37
2021/10/05 11:49:50;;;;;;;24.10;21.10;;;11.60;99.90;;;;;;5143794;27;20445;-38
2021/10/05 11:52:23;;;;;;;20.90;18.70;;;11.60;99.90;;;;;;5143508;27;20445;-37
2021/10/05 11:54:55;;;;;;;22.33;19.93;;;11.50;99.90;;;;;;5143664;27;20472;-37
2021/10/05 11:57:27;;;;;;;17.03;15.33;;;11.60;99.90;;;;;;5143463;28;20480;-37
2021/10/05 12:00:01;;;;;;;19.60;17.53;;;11.70;99.90;;;;;;5143391;27;20480;-36
2021/10/05 12:02:40;;;;;;;19.27;14.70;;;11.70;99.90;;;;;;5145181;27;20460;-37
2021/10/05 12:05:22;;;;;;;19.80;15.70;;;11.70;99.90;;;;;;5147034;27;20457;-37
2021/10/05 12:07:53;;;;;;;17.27;13.90;;;11.70;99.90;;;;;;5147094;27;20488;-37
2021/10/05 12:10:24;;;;;;;14.70;13.10;;;11.60;99.90;;;;;;5147260;27;20437;-37
2021/10/05 12:12:58;;;;;;;15.33;10.67;;;11.70;99.90;;;;;;5136044;27;20471;-37
2021/10/05 12:15:32;;;;;;;13.63;11.07;;;11.90;99.90;;;;;;5126401;28;20430;-38
2021/10/05 12:18:09;;;;;;;15.60;12.30;;;12.00;99.90;;;;;;5143602;27;20444;-37
2021/10/05 12:21:06;;;;;;;12.73;10.70;;;12.20;99.90;;;;;;5146841;27;20498;-37
2021/10/05 12:23:38;;;;;;;11.70;10.57;;;12.40;99.90;;;;;;5126567;28;20441;-36
2021/10/05 12:26:10;;;;;;;14.90;11.27;;;12.40;99.90;;;;;;5133090;27;20496;-36
2021/10/05 12:28:41;;;;;;;14.40;10.70;;;12.50;99.90;;;;;;5146287;27;20479;-37
2021/10/05 12:31:14;;;;;;;17.93;10.70;;;12.70;99.90;;;;;;5128705;27;20441;-36
2021/10/05 12:33:58;;;;;;;14.13;10.30;;;12.80;99.90;;;;;;5136264;27;20437;-36
2021/10/05 12:36:31;;;;;;;10.80;9.70;;;12.90;99.90;;;;;;5146272;27;20516;-37
2021/10/05 12:39:10;;;;;;;15.40;10.70;;;12.90;99.90;;;;;;5146171;27;20445;-37
2021/10/05 12:41:42;;;;;;;10.30;9.30;;;13.00;99.90;;;;;;5145482;27;20460;-36
2021/10/05 12:44:17;;;;;;;13.70;9.60;;;13.00;99.90;;;;;;5146801;27;20491;-36
2021/10/05 12:46:56;;;;;;;11.80;9.63;;;13.00;99.90;;;;;;5146028;27;20491;-37
2021/10/05 12:49:31;;;;;;;14.20;9.47;;;13.00;99.90;;;;;;5146417;27;20470;-37
2021/10/05 12:52:04;;;;;;;10.10;8.80;;;13.00;99.90;;;;;;5146968;27;20425;-37
2021/10/05 12:54:35;;;;;;;9.23;7.73;;;13.00;99.90;;;;;;5146723;27;20445;-37
2021/10/05 12:57:08;;;;;;;9.90;8.67;;;13.00;99.90;;;;;;5146593;27;20877;-36